createdAt,value
2023-01-13T00:09:15.130Z,43.82
2023-01-13T00:19:16.622Z,43.90
2023-01-13T00:29:18.409Z,43.87
2023-01-13T00:39:19.754Z,43.84
2023-01-13T00:49:21.178Z,44.02
2023-01-13T00:59:22.531Z,43.89
2023-01-13T01:09:24.089Z,43.74
2023-01-13T01:19:25.474Z,43.81
2023-01-13T01:29:26.897Z,43.88
2023-01-13T01:39:28.249Z,43.89
2023-01-13T01:49:31.539Z,43.88
2023-01-13T01:59:33.100Z,43.87
2023-01-13T02:09:34.661Z,43.84
2023-01-13T02:20:13.722Z,43.96
2023-01-13T02:30:52.491Z,43.97
2023-01-13T02:40:59.432Z,43.96
2023-01-13T02:51:04.487Z,44.14
2023-01-13T03:01:05.921Z,44.11
2023-01-13T03:11:08.920Z,44.08
2023-01-13T03:21:17.726Z,44.01
2023-01-13T03:31:20.420Z,44.16
2023-01-13T03:41:27.429Z,44.22
2023-01-13T03:51:29.755Z,44.17
2023-01-13T04:01:45.501Z,44.30
2023-01-13T04:11:56.156Z,44.21
2023-01-13T04:21:57.702Z,44.19
2023-01-13T04:31:59.084Z,44.21
2023-01-13T04:42:02.400Z,44.38
2023-01-13T04:52:03.864Z,44.44
2023-01-13T05:02:08.380Z,44.50
2023-01-13T05:12:29.202Z,44.66
2023-01-13T05:22:49.062Z,44.41
2023-01-13T05:32:51.576Z,44.02
2023-01-13T05:43:20.462Z,43.67
2023-01-13T05:53:22.232Z,43.31
2023-01-13T06:03:24.566Z,43.06
2023-01-13T06:13:26.091Z,42.98
2023-01-13T06:23:27.481Z,42.81
2023-01-13T06:33:30.706Z,42.90
2023-01-13T06:43:32.245Z,42.95
2023-01-13T06:53:33.623Z,43.11
2023-01-13T07:03:35.011Z,43.41
2023-01-13T07:13:55.183Z,43.44
2023-01-13T07:23:56.694Z,43.27
2023-01-13T07:33:58.227Z,43.06
2023-01-13T07:44:00.366Z,42.87
2023-01-13T07:54:01.938Z,43.16
2023-01-13T08:04:03.326Z,43.34
2023-01-13T08:14:04.857Z,43.56
2023-01-13T08:24:06.695Z,43.42
2023-01-13T08:34:08.069Z,43.33
2023-01-13T08:44:09.587Z,43.29
2023-01-13T08:54:11.400Z,43.23
2023-01-13T09:04:20.761Z,43.37
2023-01-13T09:14:23.384Z,43.38
2023-01-13T09:24:25.088Z,43.73
2023-01-13T09:34:45.127Z,43.46
2023-01-13T09:45:06.958Z,43.46
2023-01-13T09:55:30.126Z,43.39
2023-01-13T10:05:38.751Z,43.38
2023-01-13T10:15:42.877Z,43.27
2023-01-13T10:25:53.758Z,43.30
2023-01-13T10:36:14.270Z,43.37
2023-01-13T10:46:18.619Z,43.31
2023-01-13T10:56:20.733Z,43.28
2023-01-13T11:06:30.886Z,43.41
2023-01-13T11:16:32.445Z,43.38
2023-01-13T11:26:59.732Z,43.15
2023-01-13T11:37:01.888Z,43.13
2023-01-13T11:47:03.638Z,42.95
2023-01-13T11:57:33.888Z,42.96
2023-01-13T12:07:47.318Z,43.13
2023-01-13T12:18:27.738Z,42.97
2023-01-13T12:28:37.410Z,43.07
2023-01-13T12:38:44.376Z,43.12
2023-01-13T12:48:56.479Z,42.97
2023-01-13T12:59:16.298Z,43.10
2023-01-13T13:09:21.270Z,43.03
2023-01-13T13:19:22.664Z,42.97
2023-01-13T13:29:49.046Z,42.96
2023-01-13T13:40:08.768Z,42.97
2023-01-13T13:50:15.318Z,43.06
2023-01-13T14:00:31.893Z,42.97
2023-01-13T14:10:38.064Z,43.05
2023-01-13T14:20:40.452Z,43.23
2023-01-13T14:30:41.908Z,43.23
2023-01-13T14:40:45.536Z,43.11
2023-01-13T14:50:47.129Z,43.31
2023-01-13T15:00:49.570Z,43.35
2023-01-13T15:11:18.076Z,43.41
2023-01-13T15:21:19.518Z,43.42
2023-01-13T15:31:21.124Z,43.41
2023-01-13T15:41:42.605Z,43.59
2023-01-13T15:51:44.202Z,43.51
2023-01-13T16:01:45.671Z,43.64
2023-01-13T16:11:47.098Z,43.70
2023-01-13T16:21:48.492Z,43.67
2023-01-13T16:31:50.115Z,43.83
2023-01-13T16:41:51.694Z,43.87
2023-01-13T16:51:53.588Z,43.90
2023-01-13T17:01:55.120Z,43.84
2023-01-13T17:11:56.705Z,43.95
2023-01-13T17:21:58.241Z,44.07
2023-01-13T17:32:00.395Z,44.00
2023-01-13T17:42:02.414Z,44.07
2023-01-13T17:52:03.871Z,43.95
2023-01-13T18:02:05.552Z,44.13
2023-01-13T18:12:07.144Z,44.17
2023-01-13T18:22:31.210Z,44.21
2023-01-13T18:32:33.317Z,43.94
2023-01-13T18:42:58.744Z,43.92
2023-01-13T18:53:00.782Z,44.04
2023-01-13T19:13:07.225Z,43.93
2023-01-13T19:23:08.655Z,44.04
2023-01-13T19:33:10.063Z,44.02
2023-01-13T19:43:30.019Z,44.01
2023-01-13T19:53:31.882Z,44.13
2023-01-13T20:03:35.759Z,44.05
2023-01-13T20:13:37.149Z,43.90
2023-01-13T20:23:38.522Z,44.03
2023-01-13T20:33:39.918Z,44.09
2023-01-13T20:43:41.310Z,44.08
2023-01-13T20:53:42.839Z,44.19
2023-01-13T21:03:44.417Z,44.11
2023-01-13T21:14:18.174Z,44.12
2023-01-13T21:24:19.713Z,44.11
2023-01-13T21:34:21.102Z,44.13
2023-01-13T21:44:41.260Z,44.09
2023-01-13T21:55:00.913Z,44.16
2023-01-13T22:05:03.847Z,44.17
2023-01-13T22:15:05.803Z,44.03
2023-01-13T22:25:09.291Z,44.11
2023-01-13T22:35:11.021Z,44.03
2023-01-13T22:45:12.805Z,44.07
2023-01-13T22:55:14.223Z,44.27
2023-01-13T23:05:15.692Z,44.17
2023-01-13T23:15:17.165Z,44.40
2023-01-13T23:25:18.546Z,44.45
2023-01-13T23:35:19.931Z,44.57
2023-01-13T23:45:21.466Z,44.71
2023-01-13T23:55:22.881Z,44.64
